createdAt,value
2017-08-27T00:01:55.300Z,86.80
2017-08-27T00:04:23.374Z,86.70
2017-08-27T00:06:51.444Z,86.40
2017-08-27T00:09:19.511Z,86.30
2017-08-27T00:11:47.644Z,86.10
2017-08-27T00:14:15.751Z,86.00
2017-08-27T00:16:43.796Z,86.10
2017-08-27T00:19:11.898Z,86.00
2017-08-27T00:21:39.964Z,86.10
2017-08-27T00:24:08.055Z,86.10
2017-08-27T00:26:36.149Z,86.10
2017-08-27T00:29:04.208Z,86.20
2017-08-27T00:31:32.254Z,86.30
2017-08-27T00:34:00.352Z,86.40
2017-08-27T00:36:28.431Z,86.50
2017-08-27T00:38:57.258Z,88.00
2017-08-27T00:41:25.351Z,86.90
2017-08-27T00:43:53.432Z,87.00
2017-08-27T00:46:21.549Z,86.90
2017-08-27T00:48:49.611Z,86.80
2017-08-27T00:51:17.660Z,87.00
2017-08-27T00:53:45.730Z,87.10
2017-08-27T00:56:13.788Z,87.40
2017-08-27T00:58:41.902Z,87.40
2017-08-27T01:01:09.963Z,87.40
2017-08-27T01:03:38.035Z,87.40
2017-08-27T01:06:06.113Z,87.30
2017-08-27T01:08:34.170Z,87.20
2017-08-27T01:11:02.242Z,88.00
2017-08-27T01:13:30.308Z,87.10
2017-08-27T01:15:58.383Z,87.00
2017-08-27T01:18:26.451Z,87.80
2017-08-27T01:20:54.511Z,86.80
2017-08-27T01:23:22.578Z,87.00
2017-08-27T01:25:50.650Z,87.00
2017-08-27T01:28:18.839Z,86.90
2017-08-27T01:30:46.911Z,87.20
2017-08-27T01:33:15.015Z,87.40
2017-08-27T01:35:43.063Z,87.40
2017-08-27T01:38:11.139Z,87.50
2017-08-27T01:40:39.211Z,87.70
2017-08-27T01:43:07.279Z,87.70
2017-08-27T01:45:35.352Z,87.70
2017-08-27T01:48:03.414Z,87.80
2017-08-27T01:50:31.483Z,87.90
2017-08-27T01:52:59.543Z,88.10
2017-08-27T01:55:28.419Z,88.10
2017-08-27T01:57:57.252Z,88.00
2017-08-27T02:00:25.317Z,88.00
2017-08-27T02:02:53.391Z,87.80
2017-08-27T02:05:21.481Z,87.90
2017-08-27T02:07:49.564Z,88.00
2017-08-27T02:10:17.633Z,88.00
2017-08-27T02:12:45.695Z,89.20
2017-08-27T02:15:13.812Z,88.20
2017-08-27T02:17:42.632Z,88.10
2017-08-27T02:20:10.702Z,88.90
2017-08-27T02:22:38.771Z,88.20
2017-08-27T02:25:06.849Z,88.30
2017-08-27T02:27:34.915Z,88.40
2017-08-27T02:30:02.979Z,88.70
2017-08-27T02:32:31.405Z,88.80
2017-08-27T02:34:59.463Z,88.70
2017-08-27T02:37:27.516Z,88.80
2017-08-27T02:39:55.584Z,88.90
2017-08-27T02:42:23.644Z,89.10
2017-08-27T02:44:51.723Z,89.10
2017-08-27T02:47:19.814Z,89.40
2017-08-27T02:49:47.914Z,89.90
2017-08-27T02:52:15.964Z,90.00
2017-08-27T02:54:44.047Z,90.00
2017-08-27T02:57:12.202Z,89.50
2017-08-27T02:59:40.284Z,89.20
2017-08-27T03:02:08.357Z,89.20
2017-08-27T03:04:36.459Z,89.50
2017-08-27T03:07:04.510Z,89.80
2017-08-27T03:09:32.595Z,89.00
2017-08-27T03:12:01.434Z,89.20
2017-08-27T03:14:29.527Z,89.00
2017-08-27T03:16:57.626Z,89.60
2017-08-27T03:19:26.460Z,90.00
2017-08-27T03:21:54.531Z,89.80
2017-08-27T03:24:22.628Z,90.00
2017-08-27T03:26:50.696Z,90.50
2017-08-27T03:29:18.775Z,90.30
2017-08-27T03:31:46.843Z,90.70
2017-08-27T03:34:14.913Z,90.70
2017-08-27T03:36:42.986Z,90.60
2017-08-27T03:39:11.068Z,90.60
2017-08-27T03:41:39.143Z,90.50
2017-08-27T03:44:07.222Z,90.30
2017-08-27T03:56:20.281Z,90.20
2017-08-27T03:58:48.380Z,91.80
2017-08-27T04:01:16.458Z,92.20
2017-08-27T04:03:44.515Z,92.20
2017-08-27T04:06:12.599Z,92.40
2017-08-27T04:08:40.664Z,92.40
2017-08-27T04:11:08.727Z,92.50
2017-08-27T04:13:36.798Z,92.00
2017-08-27T04:16:04.873Z,91.80
2017-08-27T04:18:33.052Z,91.60
2017-08-27T04:21:01.116Z,91.50
2017-08-27T04:23:29.186Z,91.30
2017-08-27T04:25:57.258Z,91.40
2017-08-27T04:28:25.335Z,91.60
2017-08-27T04:30:53.422Z,91.60
2017-08-27T04:33:21.471Z,91.50
2017-08-27T04:35:50.192Z,91.50
2017-08-27T04:38:18.270Z,91.20
2017-08-27T04:40:46.347Z,91.20
2017-08-27T04:43:14.415Z,91.00
2017-08-27T04:45:42.495Z,91.10
2017-08-27T04:48:10.575Z,91.10
2017-08-27T04:50:38.645Z,91.10
2017-08-27T04:53:06.720Z,91.00
2017-08-27T04:55:34.943Z,91.10
2017-08-27T04:58:02.985Z,91.10
2017-08-27T05:00:31.647Z,91.10
2017-08-27T05:02:59.714Z,91.00
2017-08-27T05:05:27.788Z,91.00
2017-08-27T05:07:55.904Z,91.00
2017-08-27T05:10:23.963Z,90.90
2017-08-27T05:12:52.055Z,90.70
2017-08-27T05:15:20.142Z,90.60
2017-08-27T05:17:48.206Z,90.40
2017-08-27T05:20:16.283Z,90.40
2017-08-27T05:22:44.346Z,90.40
2017-08-27T05:25:12.415Z,90.30
2017-08-27T05:27:40.485Z,90.30
2017-08-27T05:30:08.553Z,90.30
2017-08-27T05:32:36.632Z,90.30
2017-08-27T05:35:04.708Z,90.30
2017-08-27T05:37:32.771Z,90.30
2017-08-27T05:40:01.618Z,90.10
2017-08-27T05:42:29.695Z,90.10
2017-08-27T05:44:57.763Z,90.10
2017-08-27T05:47:25.843Z,90.30
2017-08-27T05:49:53.904Z,90.50
2017-08-27T05:52:21.979Z,90.70
2017-08-27T05:54:50.306Z,90.50
2017-08-27T05:57:18.375Z,90.10
2017-08-27T05:59:46.468Z,90.00
2017-08-27T06:02:14.527Z,89.70
2017-08-27T06:04:42.587Z,89.60
2017-08-27T06:07:10.803Z,89.10
2017-08-27T06:09:38.882Z,89.60
2017-08-27T06:12:06.956Z,89.10
2017-08-27T06:14:35.074Z,88.70
2017-08-27T06:17:03.148Z,89.30
2017-08-27T06:19:31.195Z,89.50
2017-08-27T06:21:59.270Z,89.60
2017-08-27T06:24:28.445Z,89.30
2017-08-27T06:26:56.502Z,89.20
2017-08-27T06:29:24.554Z,88.70
2017-08-27T06:31:52.627Z,88.30
2017-08-27T06:34:20.712Z,88.20
2017-08-27T06:36:48.766Z,87.80
2017-08-27T06:39:16.838Z,87.50
2017-08-27T06:41:44.915Z,86.80
2017-08-27T06:44:12.992Z,86.40
2017-08-27T06:46:41.063Z,86.00
2017-08-27T06:49:09.111Z,85.20
2017-08-27T06:51:37.183Z,84.30
2017-08-27T06:54:05.260Z,83.90
2017-08-27T06:56:33.339Z,83.30
2017-08-27T06:59:01.410Z,81.20
2017-08-27T07:01:29.496Z,81.90
2017-08-27T07:03:57.572Z,81.20
2017-08-27T07:06:25.661Z,80.40
2017-08-27T07:08:53.735Z,80.00
2017-08-27T07:11:21.825Z,80.00
2017-08-27T07:13:49.896Z,79.10
2017-08-27T07:16:17.951Z,79.50
2017-08-27T07:18:46.023Z,78.70
2017-08-27T07:21:14.120Z,79.10
2017-08-27T07:23:42.224Z,79.40
2017-08-27T07:26:10.537Z,78.80
2017-08-27T07:28:38.594Z,79.30
2017-08-27T07:31:06.675Z,79.10
2017-08-27T07:33:34.730Z,78.50
2017-08-27T07:36:02.935Z,78.00
2017-08-27T07:38:31.007Z,78.30
2017-08-27T07:40:59.085Z,77.20
2017-08-27T07:43:27.177Z,78.50
2017-08-27T07:45:55.285Z,78.10
2017-08-27T07:48:23.367Z,77.50
2017-08-27T07:50:51.434Z,76.90
2017-08-27T07:53:19.525Z,77.00
2017-08-27T07:55:47.653Z,76.70
2017-08-27T07:58:16.196Z,76.30
2017-08-27T08:00:44.327Z,77.60
2017-08-27T08:03:12.991Z,76.90
2017-08-27T08:05:41.055Z,76.60
2017-08-27T08:08:09.127Z,75.70
2017-08-27T08:10:37.219Z,76.40
2017-08-27T08:13:05.279Z,73.80
2017-08-27T08:15:33.404Z,73.10
2017-08-27T08:18:01.502Z,73.10
2017-08-27T08:20:29.563Z,72.80
2017-08-27T08:22:57.656Z,73.80
2017-08-27T08:25:25.712Z,72.60
2017-08-27T08:27:53.795Z,71.30
2017-08-27T08:30:23.945Z,70.40
2017-08-27T08:32:51.987Z,71.80
2017-08-27T08:35:20.051Z,70.30
2017-08-27T08:37:48.175Z,67.20
2017-08-27T08:40:16.242Z,68.80
2017-08-27T08:42:44.323Z,66.80
2017-08-27T08:45:13.139Z,64.60
2017-08-27T08:47:41.201Z,63.80
2017-08-27T08:50:09.277Z,64.50
2017-08-27T08:52:37.335Z,63.70
2017-08-27T08:55:05.423Z,64.00
2017-08-27T08:57:33.500Z,64.30
2017-08-27T09:00:01.564Z,64.00
2017-08-27T09:02:29.706Z,62.00
2017-08-27T09:04:57.759Z,61.60
2017-08-27T09:07:25.855Z,59.60
2017-08-27T09:09:53.914Z,56.60
2017-08-27T09:12:22.023Z,55.10
2017-08-27T09:14:50.088Z,56.80
2017-08-27T09:17:18.171Z,55.40
2017-08-27T09:19:46.269Z,55.50
2017-08-27T09:22:15.094Z,54.10
2017-08-27T09:24:43.163Z,54.10
2017-08-27T09:27:11.334Z,53.40
2017-08-27T09:29:39.403Z,53.80
2017-08-27T09:32:07.484Z,52.70
2017-08-27T09:34:35.586Z,51.10
2017-08-27T09:37:03.667Z,50.10
2017-08-27T09:39:31.778Z,46.00
2017-08-27T09:42:00.641Z,38.50
2017-08-27T09:44:28.707Z,38.20
2017-08-27T09:46:56.789Z,34.80
2017-08-27T09:49:24.868Z,31.90
2017-08-27T09:51:52.931Z,29.70
2017-08-27T09:54:21.003Z,28.50
2017-08-27T09:56:49.068Z,27.00
2017-08-27T09:59:17.152Z,26.90
2017-08-27T10:01:45.199Z,24.70
2017-08-27T10:04:13.818Z,23.90
2017-08-27T10:06:41.879Z,23.80
2017-08-27T10:09:09.951Z,23.00
2017-08-27T10:11:38.016Z,22.60
2017-08-27T10:14:06.097Z,22.00
2017-08-27T10:16:34.148Z,21.70
2017-08-27T10:19:03.058Z,21.90
2017-08-27T10:21:31.120Z,21.50
2017-08-27T10:23:59.211Z,21.30
2017-08-27T10:26:27.255Z,21.60
2017-08-27T10:28:55.341Z,21.80
2017-08-27T10:31:23.402Z,21.90
2017-08-27T10:33:51.484Z,21.10
2017-08-27T10:36:19.556Z,22.50
2017-08-27T10:38:47.667Z,21.80
2017-08-27T10:41:15.719Z,21.50
2017-08-27T10:43:43.773Z,21.50
2017-08-27T10:46:11.864Z,21.70
2017-08-27T10:48:39.924Z,21.20
2017-08-27T10:51:08.000Z,21.00
2017-08-27T10:53:36.072Z,20.60
2017-08-27T10:56:04.123Z,19.90
2017-08-27T10:58:32.245Z,20.00
2017-08-27T11:01:00.276Z,19.40
2017-08-27T11:03:28.382Z,19.70
2017-08-27T11:05:56.480Z,19.40
2017-08-27T11:08:24.546Z,19.30
2017-08-27T11:10:52.609Z,19.40
2017-08-27T11:13:20.679Z,19.50
2017-08-27T11:15:48.762Z,20.00
2017-08-27T11:18:16.820Z,20.10
2017-08-27T11:20:44.911Z,20.20
2017-08-27T11:23:12.987Z,20.10
2017-08-27T11:25:41.051Z,20.30
2017-08-27T11:28:09.112Z,20.80
2017-08-27T11:30:37.179Z,21.10
2017-08-27T11:33:05.251Z,21.00
2017-08-27T11:35:33.358Z,21.30
2017-08-27T11:38:01.431Z,21.50
2017-08-27T11:40:29.502Z,21.80
2017-08-27T11:42:57.568Z,22.60
2017-08-27T11:45:26.475Z,24.00
2017-08-27T11:47:54.550Z,24.00
2017-08-27T11:50:22.616Z,23.20
2017-08-27T11:52:50.728Z,22.70
2017-08-27T11:55:19.634Z,22.40
2017-08-27T11:57:47.711Z,23.20
2017-08-27T12:00:15.775Z,24.40
2017-08-27T12:02:43.863Z,26.60
2017-08-27T12:05:12.727Z,29.30
2017-08-27T12:07:41.115Z,29.30
2017-08-27T12:10:09.168Z,29.70
2017-08-27T12:12:37.231Z,30.70
2017-08-27T12:15:05.308Z,32.20
2017-08-27T12:17:33.370Z,34.40
2017-08-27T12:20:01.502Z,35.50
2017-08-27T12:22:29.543Z,36.60
2017-08-27T12:24:57.619Z,37.70
2017-08-27T12:27:26.490Z,38.50
2017-08-27T12:29:55.379Z,38.40
2017-08-27T12:32:23.555Z,38.30
2017-08-27T12:34:51.651Z,38.50
2017-08-27T12:37:19.703Z,38.40
2017-08-27T12:39:47.776Z,37.40
2017-08-27T12:42:15.832Z,38.30
2017-08-27T12:44:44.677Z,39.20
2017-08-27T12:47:13.020Z,39.20
2017-08-27T12:49:41.047Z,37.70
2017-08-27T12:52:09.122Z,38.20
2017-08-27T12:54:37.180Z,38.80
2017-08-27T12:57:05.274Z,39.30
2017-08-27T12:59:33.370Z,38.90
2017-08-27T13:02:01.455Z,39.80
2017-08-27T13:04:29.516Z,40.20
2017-08-27T13:06:57.568Z,41.10
2017-08-27T13:09:26.435Z,41.60
2017-08-27T13:11:54.491Z,41.50
2017-08-27T13:14:22.570Z,41.40
2017-08-27T13:16:50.635Z,41.60
2017-08-27T13:19:18.706Z,40.80
2017-08-27T13:21:46.782Z,40.80
2017-08-27T13:24:14.852Z,41.30
2017-08-27T13:26:42.914Z,40.80
2017-08-27T13:29:10.988Z,41.10
2017-08-27T13:31:39.045Z,40.60
2017-08-27T13:34:07.105Z,39.60
2017-08-27T13:36:35.167Z,39.60
2017-08-27T13:39:03.224Z,39.80
2017-08-27T13:41:31.311Z,40.40
2017-08-27T13:43:59.420Z,40.50
2017-08-27T13:46:27.464Z,41.50
2017-08-27T13:48:55.533Z,41.00
2017-08-27T13:51:23.591Z,40.70
2017-08-27T13:53:51.675Z,41.70
2017-08-27T13:56:20.507Z,41.40
2017-08-27T13:58:48.591Z,41.40
2017-08-27T14:01:16.670Z,40.90
2017-08-27T14:03:44.715Z,40.10
2017-08-27T14:06:12.798Z,40.10
2017-08-27T14:08:40.852Z,40.50
2017-08-27T14:11:08.931Z,40.90
2017-08-27T14:13:36.980Z,40.00
2017-08-27T14:16:05.094Z,41.00
2017-08-27T14:18:33.147Z,40.30
2017-08-27T14:21:01.219Z,40.10
2017-08-27T14:23:29.289Z,39.70
2017-08-27T14:25:57.432Z,39.30
2017-08-27T14:28:25.490Z,39.30
2017-08-27T14:30:53.575Z,39.70
2017-08-27T14:33:21.637Z,39.20
2017-08-27T14:35:49.714Z,38.90
2017-08-27T14:38:17.791Z,38.90
2017-08-27T14:40:45.879Z,39.00
2017-08-27T14:43:14.712Z,38.90
2017-08-27T14:45:42.778Z,38.80
2017-08-27T14:48:11.604Z,39.50
2017-08-27T14:50:39.671Z,39.40
2017-08-27T14:53:07.761Z,39.10
2017-08-27T14:55:35.838Z,39.20
2017-08-27T14:58:04.410Z,40.20
2017-08-27T15:00:32.480Z,40.40
2017-08-27T15:03:00.571Z,40.20
2017-08-27T15:05:29.397Z,41.60
2017-08-27T15:07:57.489Z,40.90
2017-08-27T15:10:25.547Z,41.00
2017-08-27T15:12:53.622Z,40.40
2017-08-27T15:15:21.708Z,41.30
2017-08-27T15:17:49.800Z,41.40
2017-08-27T15:20:17.868Z,41.90
2017-08-27T15:22:45.941Z,42.40
2017-08-27T15:25:14.007Z,42.70
2017-08-27T15:27:42.091Z,42.50
2017-08-27T15:30:10.159Z,43.30
2017-08-27T15:32:38.204Z,42.90
2017-08-27T15:35:06.304Z,43.00
2017-08-27T15:37:34.416Z,43.10
2017-08-27T15:40:02.494Z,42.20
2017-08-27T15:42:30.584Z,42.60
2017-08-27T15:44:58.652Z,42.00
2017-08-27T15:47:26.727Z,42.00
2017-08-27T15:49:54.840Z,42.20
2017-08-27T15:52:22.906Z,42.30
2017-08-27T15:54:50.979Z,42.40
2017-08-27T15:57:19.068Z,42.90
2017-08-27T15:59:47.128Z,42.60
2017-08-27T16:02:15.204Z,42.40
2017-08-27T16:04:43.259Z,42.40
2017-08-27T16:07:11.477Z,42.80
2017-08-27T16:09:39.533Z,43.10
2017-08-27T16:12:07.594Z,42.90
2017-08-27T16:14:36.388Z,43.10
2017-08-27T16:17:04.451Z,42.90
2017-08-27T16:19:32.537Z,43.30
2017-08-27T16:22:00.615Z,43.40
2017-08-27T16:24:28.681Z,43.30
2017-08-27T16:26:56.771Z,43.60
2017-08-27T16:29:24.826Z,43.10
2017-08-27T16:31:52.934Z,43.00
2017-08-27T16:34:21.004Z,43.20
2017-08-27T16:36:49.056Z,43.10
2017-08-27T16:39:17.191Z,43.00
2017-08-27T16:41:45.227Z,43.30
2017-08-27T16:44:14.105Z,43.60
2017-08-27T16:46:42.172Z,43.60
2017-08-27T16:49:10.240Z,43.40
2017-08-27T16:51:38.316Z,43.50
2017-08-27T16:54:06.400Z,44.00
2017-08-27T16:56:34.862Z,44.30
2017-08-27T16:59:02.891Z,45.20
2017-08-27T17:01:30.955Z,44.70
2017-08-27T17:03:59.055Z,45.10
2017-08-27T17:06:27.123Z,44.70
2017-08-27T17:08:55.167Z,45.30
2017-08-27T17:11:23.235Z,45.80
2017-08-27T17:13:51.364Z,46.00
2017-08-27T17:16:19.412Z,46.10
2017-08-27T17:18:48.327Z,46.30
2017-08-27T17:21:17.150Z,47.00
2017-08-27T17:23:45.208Z,46.30
2017-08-27T17:26:13.320Z,46.80
2017-08-27T17:28:41.382Z,46.90
2017-08-27T17:31:09.436Z,47.20
2017-08-27T17:33:37.566Z,47.30
2017-08-27T17:36:06.392Z,47.30
2017-08-27T17:38:34.455Z,47.30
2017-08-27T17:41:02.552Z,48.10
2017-08-27T17:43:30.642Z,48.00
2017-08-27T17:45:58.711Z,47.70
2017-08-27T17:48:26.840Z,47.80
2017-08-27T17:50:54.898Z,48.10
2017-08-27T18:03:07.966Z,48.90
2017-08-27T18:05:36.042Z,52.70
2017-08-27T18:08:05.240Z,52.90
2017-08-27T18:10:33.415Z,53.10
2017-08-27T18:13:01.460Z,53.40
2017-08-27T18:15:30.333Z,53.80
2017-08-27T18:17:58.407Z,53.80
2017-08-27T18:20:26.510Z,54.10
2017-08-27T18:22:54.650Z,54.50
2017-08-27T18:25:23.522Z,55.10
2017-08-27T18:27:51.572Z,55.00
2017-08-27T18:30:19.664Z,55.40
2017-08-27T18:32:48.662Z,55.90
2017-08-27T18:35:17.323Z,55.40
2017-08-27T18:37:45.406Z,55.70
2017-08-27T18:40:14.349Z,55.60
2017-08-27T18:42:42.436Z,55.50
2017-08-27T18:45:10.535Z,55.80
2017-08-27T18:47:38.616Z,55.90
2017-08-27T18:50:06.698Z,56.40
2017-08-27T18:52:34.814Z,56.40
2017-08-27T18:55:02.948Z,56.40
2017-08-27T18:57:31.032Z,56.70
2017-08-27T18:59:59.118Z,56.70
2017-08-27T19:02:28.991Z,57.10
2017-08-27T19:04:57.106Z,57.50
2017-08-27T19:07:25.183Z,57.80
2017-08-27T19:09:53.253Z,58.20
2017-08-27T19:12:22.117Z,58.40
2017-08-27T19:14:50.189Z,58.50
2017-08-27T19:17:18.277Z,58.80
2017-08-27T19:19:47.141Z,59.20
2017-08-27T19:22:15.223Z,59.20
2017-08-27T19:24:43.308Z,59.20
2017-08-27T19:27:11.461Z,59.20
2017-08-27T19:29:39.520Z,59.10
2017-08-27T19:32:07.587Z,59.20
2017-08-27T19:34:35.998Z,59.50
2017-08-27T19:37:04.050Z,59.60
2017-08-27T19:39:32.135Z,59.70
2017-08-27T19:42:00.250Z,60.40
2017-08-27T19:44:28.351Z,61.00
2017-08-27T19:46:56.422Z,61.10
2017-08-27T19:49:24.532Z,61.60
2017-08-27T19:51:53.403Z,62.10
2017-08-27T19:54:22.245Z,62.20
2017-08-27T19:56:50.346Z,62.20
2017-08-27T19:59:18.461Z,61.80
2017-08-27T20:01:46.493Z,62.10
2017-08-27T20:04:14.577Z,61.70
2017-08-27T20:06:42.642Z,62.70
2017-08-27T20:09:10.737Z,63.10
2017-08-27T20:11:38.783Z,62.90
2017-08-27T20:14:08.797Z,63.10
2017-08-27T20:16:36.859Z,63.20
2017-08-27T20:19:04.911Z,62.90
2017-08-27T20:21:33.035Z,63.50
2017-08-27T20:24:01.732Z,63.80
2017-08-27T20:26:30.539Z,65.00
2017-08-27T20:28:58.624Z,64.90
2017-08-27T20:31:26.710Z,65.50
2017-08-27T20:33:54.782Z,65.30
2017-08-27T20:36:22.853Z,65.70
2017-08-27T20:38:50.933Z,65.60
2017-08-27T20:41:18.994Z,65.80
2017-08-27T20:43:47.067Z,65.90
2017-08-27T20:46:15.151Z,65.70
2017-08-27T20:48:43.225Z,65.50
2017-08-27T20:51:11.289Z,65.50
2017-08-27T20:53:39.374Z,65.30
2017-08-27T20:56:07.487Z,65.80
2017-08-27T20:58:35.564Z,66.10
2017-08-27T21:01:03.655Z,66.30
2017-08-27T21:03:31.725Z,66.50
2017-08-27T21:05:59.799Z,66.40
2017-08-27T21:08:27.859Z,66.40
2017-08-27T21:10:55.912Z,66.70
2017-08-27T21:13:23.997Z,67.30
2017-08-27T21:15:52.104Z,67.60
2017-08-27T21:18:20.151Z,68.00
2017-08-27T21:20:48.234Z,68.30
2017-08-27T21:23:16.322Z,69.20
2017-08-27T21:25:44.383Z,69.70
2017-08-27T21:28:12.455Z,69.90
2017-08-27T21:30:40.542Z,70.00
2017-08-27T21:33:08.600Z,70.20
2017-08-27T21:35:36.677Z,70.40
2017-08-27T21:38:04.723Z,70.40
2017-08-27T21:40:32.791Z,70.70
2017-08-27T21:43:00.845Z,70.60
2017-08-27T21:45:28.902Z,71.00
2017-08-27T21:47:57.768Z,71.80
2017-08-27T21:50:25.827Z,71.60
2017-08-27T21:52:53.915Z,71.90
2017-08-27T21:55:21.990Z,72.10
2017-08-27T21:57:50.816Z,72.10
2017-08-27T22:00:24.712Z,72.10
2017-08-27T22:02:52.768Z,72.40
2017-08-27T22:05:21.590Z,72.40
2017-08-27T22:07:49.669Z,72.30
2017-08-27T22:10:18.324Z,73.00
2017-08-27T22:12:46.419Z,72.50
2017-08-27T22:15:14.486Z,72.50
2017-08-27T22:17:42.541Z,72.70
2017-08-27T22:20:10.619Z,73.60
2017-08-27T22:22:38.703Z,72.30
2017-08-27T22:25:06.751Z,72.10
2017-08-27T22:27:34.859Z,71.80
2017-08-27T22:30:02.908Z,71.70
2017-08-27T22:32:30.980Z,71.70
2017-08-27T22:34:59.974Z,71.70
2017-08-27T22:37:28.059Z,72.10
2017-08-27T22:39:56.147Z,72.00
2017-08-27T22:42:24.217Z,72.30
2017-08-27T22:44:52.287Z,72.40
2017-08-27T22:47:20.357Z,72.00
2017-08-27T22:49:48.444Z,71.80
2017-08-27T22:52:16.513Z,71.80
2017-08-27T22:54:44.574Z,72.00
2017-08-27T22:57:12.690Z,72.20
2017-08-27T22:59:40.747Z,72.40
2017-08-27T23:02:08.817Z,73.20
2017-08-27T23:04:36.892Z,72.40
2017-08-27T23:07:05.069Z,72.40
2017-08-27T23:09:33.262Z,72.40
2017-08-27T23:12:02.245Z,72.50
2017-08-27T23:14:30.289Z,72.40
2017-08-27T23:16:59.142Z,72.70
2017-08-27T23:19:27.976Z,72.80
2017-08-27T23:21:56.047Z,72.70
2017-08-27T23:24:24.116Z,72.60
2017-08-27T23:26:52.199Z,72.30
2017-08-27T23:29:20.246Z,72.20
2017-08-27T23:31:48.331Z,72.20
2017-08-27T23:34:16.407Z,72.20
2017-08-27T23:36:44.483Z,72.30
2017-08-27T23:39:12.554Z,72.20
2017-08-27T23:41:40.645Z,72.30
2017-08-27T23:44:08.693Z,72.60
2017-08-27T23:46:36.824Z,72.80
2017-08-27T23:49:04.872Z,72.90
2017-08-27T23:51:32.939Z,73.10
2017-08-27T23:54:01.009Z,73.40
2017-08-27T23:56:29.078Z,73.50
2017-08-27T23:58:57.153Z,73.70
